sensor_id;sensor_type;location;lat;lon;timestamp;P1;durP1;ratioP1;P2;durP2;ratioP2
20928;SDS011;21895;47.072;15.132;2023-03-01T00:01:16;53.40;;;19.67;;
20928;SDS011;21895;47.072;15.132;2023-03-01T00:03:46;54.60;;;18.40;;
20928;SDS011;21895;47.072;15.132;2023-03-01T00:06:13;46.63;;;18.20;;
20928;SDS011;21895;47.072;15.132;2023-03-01T00:08:40;44.90;;;17.70;;
20928;SDS011;21895;47.072;15.132;2023-03-01T00:11:08;39.27;;;16.33;;
20928;SDS011;21895;47.072;15.132;2023-03-01T00:13:44;38.13;;;15.07;;
20928;SDS011;21895;47.072;15.132;2023-03-01T00:16:33;43.40;;;15.57;;
20928;SDS011;21895;47.072;15.132;2023-03-01T00:19:06;43.43;;;15.50;;
20928;SDS011;21895;47.072;15.132;2023-03-01T00:21:38;46.10;;;15.83;;
20928;SDS011;21895;47.072;15.132;2023-03-01T00:24:05;37.77;;;14.50;;
20928;SDS011;21895;47.072;15.132;2023-03-01T00:26:32;45.00;;;16.40;;
20928;SDS011;21895;47.072;15.132;2023-03-01T00:28:59;39.50;;;16.30;;
20928;SDS011;21895;47.072;15.132;2023-03-01T00:31:27;36.73;;;15.53;;
20928;SDS011;21895;47.072;15.132;2023-03-01T00:33:58;41.30;;;15.87;;
20928;SDS011;21895;47.072;15.132;2023-03-01T00:36:29;43.83;;;16.30;;
20928;SDS011;21895;47.072;15.132;2023-03-01T00:39:02;38.87;;;15.63;;
20928;SDS011;21895;47.072;15.132;2023-03-01T00:41:31;46.77;;;16.63;;
20928;SDS011;21895;47.072;15.132;2023-03-01T00:43:59;41.83;;;16.83;;
20928;SDS011;21895;47.072;15.132;2023-03-01T00:46:26;54.20;;;17.30;;
20928;SDS011;21895;47.072;15.132;2023-03-01T00:48:53;40.63;;;17.50;;
20928;SDS011;21895;47.072;15.132;2023-03-01T00:51:21;42.40;;;17.07;;
20928;SDS011;21895;47.072;15.132;2023-03-01T00:53:54;41.27;;;17.43;;
20928;SDS011;21895;47.072;15.132;2023-03-01T00:56:23;42.67;;;16.50;;
20928;SDS011;21895;47.072;15.132;2023-03-01T00:58:50;47.40;;;16.77;;
20928;SDS011;21895;47.072;15.132;2023-03-01T01:01:18;51.07;;;18.37;;
20928;SDS011;21895;47.072;15.132;2023-03-01T01:03:53;40.53;;;15.97;;
20928;SDS011;21895;47.072;15.132;2023-03-01T01:06:26;40.90;;;16.57;;
20928;SDS011;21895;47.072;15.132;2023-03-01T01:08:57;45.70;;;17.23;;
20928;SDS011;21895;47.072;15.132;2023-03-01T01:11:25;39.90;;;17.07;;
20928;SDS011;21895;47.072;15.132;2023-03-01T01:13:54;51.83;;;18.07;;
20928;SDS011;21895;47.072;15.132;2023-03-01T01:16:22;49.40;;;17.93;;
20928;SDS011;21895;47.072;15.132;2023-03-01T01:18:52;41.50;;;16.87;;
20928;SDS011;21895;47.072;15.132;2023-03-01T01:21:19;48.27;;;16.37;;
20928;SDS011;21895;47.072;15.132;2023-03-01T01:23:50;48.73;;;17.47;;
20928;SDS011;21895;47.072;15.132;2023-03-01T01:26:22;44.30;;;18.17;;
20928;SDS011;21895;47.072;15.132;2023-03-01T01:28:51;42.53;;;16.37;;
20928;SDS011;21895;47.072;15.132;2023-03-01T01:31:19;41.83;;;17.73;;
20928;SDS011;21895;47.072;15.132;2023-03-01T01:33:49;42.43;;;16.57;;
20928;SDS011;21895;47.072;15.132;2023-03-01T01:36:17;42.07;;;17.60;;
20928;SDS011;21895;47.072;15.132;2023-03-01T01:38:43;41.63;;;17.80;;
20928;SDS011;21895;47.072;15.132;2023-03-01T01:41:10;41.13;;;15.83;;
20928;SDS011;21895;47.072;15.132;2023-03-01T01:43:43;45.50;;;18.03;;
20928;SDS011;21895;47.072;15.132;2023-03-01T01:46:30;45.53;;;18.07;;
20928;SDS011;21895;47.072;15.132;2023-03-01T01:49:01;47.53;;;17.83;;
20928;SDS011;21895;47.072;15.132;2023-03-01T01:51:42;44.83;;;18.33;;
20928;SDS011;21895;47.072;15.132;2023-03-01T01:54:18;43.83;;;16.90;;
20928;SDS011;21895;47.072;15.132;2023-03-01T01:56:59;47.73;;;18.10;;
20928;SDS011;21895;47.072;15.132;2023-03-01T01:59:32;42.07;;;17.37;;
20928;SDS011;21895;47.072;15.132;2023-03-01T02:02:00;51.43;;;17.93;;
20928;SDS011;21895;47.072;15.132;2023-03-01T02:04:30;48.00;;;16.97;;
20928;SDS011;21895;47.072;15.132;2023-03-01T02:07:01;40.47;;;16.80;;
20928;SDS011;21895;47.072;15.132;2023-03-01T02:09:46;45.93;;;17.60;;
20928;SDS011;21895;47.072;15.132;2023-03-01T02:12:16;49.30;;;17.03;;
20928;SDS011;21895;47.072;15.132;2023-03-01T02:14:47;40.17;;;16.70;;
20928;SDS011;21895;47.072;15.132;2023-03-01T02:17:14;47.00;;;17.63;;
20928;SDS011;21895;47.072;15.132;2023-03-01T02:19:57;43.90;;;17.20;;
20928;SDS011;21895;47.072;15.132;2023-03-01T02:24:25;40.97;;;16.13;;
20928;SDS011;21895;47.072;15.132;2023-03-01T02:31:06;51.17;;;16.30;;
20928;SDS011;21895;47.072;15.132;2023-03-01T02:33:54;48.27;;;17.57;;
20928;SDS011;21895;47.072;15.132;2023-03-01T02:36:26;42.13;;;15.80;;
20928;SDS011;21895;47.072;15.132;2023-03-01T02:38:59;43.77;;;16.63;;
20928;SDS011;21895;47.072;15.132;2023-03-01T02:41:32;55.40;;;17.20;;
20928;SDS011;21895;47.072;15.132;2023-03-01T02:44:04;42.17;;;17.10;;
20928;SDS011;21895;47.072;15.132;2023-03-01T02:46:31;47.23;;;17.37;;
20928;SDS011;21895;47.072;15.132;2023-03-01T02:48:59;38.77;;;16.70;;
20928;SDS011;21895;47.072;15.132;2023-03-01T02:51:47;41.23;;;15.97;;
20928;SDS011;21895;47.072;15.132;2023-03-01T02:54:54;41.67;;;15.57;;
20928;SDS011;21895;47.072;15.132;2023-03-01T02:57:36;43.03;;;15.93;;
20928;SDS011;21895;47.072;15.132;2023-03-01T03:00:08;40.47;;;15.43;;
20928;SDS011;21895;47.072;15.132;2023-03-01T03:02:46;42.53;;;17.17;;
20928;SDS011;21895;47.072;15.132;2023-03-01T03:05:16;40.80;;;16.13;;
20928;SDS011;21895;47.072;15.132;2023-03-01T03:07:50;47.40;;;16.87;;
20928;SDS011;21895;47.072;15.132;2023-03-01T03:10:21;49.57;;;17.30;;
20928;SDS011;21895;47.072;15.132;2023-03-01T03:12:53;42.23;;;16.50;;
20928;SDS011;21895;47.072;15.132;2023-03-01T03:15:22;47.27;;;18.07;;
20928;SDS011;21895;47.072;15.132;2023-03-01T03:17:50;42.77;;;16.90;;
20928;SDS011;21895;47.072;15.132;2023-03-01T03:20:19;40.90;;;16.80;;
20928;SDS011;21895;47.072;15.132;2023-03-01T03:22:51;48.87;;;17.20;;
20928;SDS011;21895;47.072;15.132;2023-03-01T03:25:20;42.73;;;16.53;;
20928;SDS011;21895;47.072;15.132;2023-03-01T03:27:49;45.00;;;17.03;;
20928;SDS011;21895;47.072;15.132;2023-03-01T03:30:22;43.10;;;16.47;;
20928;SDS011;21895;47.072;15.132;2023-03-01T03:32:53;44.30;;;17.00;;
20928;SDS011;21895;47.072;15.132;2023-03-01T03:35:21;43.07;;;16.97;;
20928;SDS011;21895;47.072;15.132;2023-03-01T03:37:58;41.83;;;16.40;;
20928;SDS011;21895;47.072;15.132;2023-03-01T03:40:38;33.63;;;15.53;;
20928;SDS011;21895;47.072;15.132;2023-03-01T03:43:08;43.10;;;16.20;;
20928;SDS011;21895;47.072;15.132;2023-03-01T03:45:37;43.80;;;16.83;;
20928;SDS011;21895;47.072;15.132;2023-03-01T03:48:05;40.07;;;16.43;;
20928;SDS011;21895;47.072;15.132;2023-03-01T03:50:34;44.97;;;17.63;;
20928;SDS011;21895;47.072;15.132;2023-03-01T03:53:03;44.27;;;17.20;;
20928;SDS011;21895;47.072;15.132;2023-03-01T03:55:37;47.33;;;17.07;;
20928;SDS011;21895;47.072;15.132;2023-03-01T03:58:05;44.80;;;17.30;;
20928;SDS011;21895;47.072;15.132;2023-03-01T04:00:36;46.03;;;18.17;;
20928;SDS011;21895;47.072;15.132;2023-03-01T04:03:09;43.37;;;16.97;;
20928;SDS011;21895;47.072;15.132;2023-03-01T04:05:39;45.70;;;17.17;;
20928;SDS011;21895;47.072;15.132;2023-03-01T04:08:06;50.40;;;16.40;;
20928;SDS011;21895;47.072;15.132;2023-03-01T04:10:37;37.77;;;15.43;;
20928;SDS011;21895;47.072;15.132;2023-03-01T04:13:08;40.10;;;16.23;;
20928;SDS011;21895;47.072;15.132;2023-03-01T04:15:39;46.00;;;16.53;;
20928;SDS011;21895;47.072;15.132;2023-03-01T04:18:06;40.30;;;15.70;;
20928;SDS011;21895;47.072;15.132;2023-03-01T04:20:40;39.40;;;15.67;;
20928;SDS011;21895;47.072;15.132;2023-03-01T04:23:14;38.97;;;15.80;;
20928;SDS011;21895;47.072;15.132;2023-03-01T04:25:47;40.60;;;16.07;;
20928;SDS011;21895;47.072;15.132;2023-03-01T04:28:25;51.57;;;17.00;;
20928;SDS011;21895;47.072;15.132;2023-03-01T04:31:05;37.97;;;15.70;;
20928;SDS011;21895;47.072;15.132;2023-03-01T04:33:45;43.20;;;16.70;;
20928;SDS011;21895;47.072;15.132;2023-03-01T04:36:21;39.17;;;15.87;;
20928;SDS011;21895;47.072;15.132;2023-03-01T04:38:52;44.83;;;16.30;;
20928;SDS011;21895;47.072;15.132;2023-03-01T04:41:20;38.30;;;15.63;;
20928;SDS011;21895;47.072;15.132;2023-03-01T04:43:49;46.07;;;16.47;;
20928;SDS011;21895;47.072;15.132;2023-03-01T04:46:17;39.63;;;15.57;;
20928;SDS011;21895;47.072;15.132;2023-03-01T04:48:46;44.20;;;15.80;;
20928;SDS011;21895;47.072;15.132;2023-03-01T04:51:13;36.67;;;15.10;;
20928;SDS011;21895;47.072;15.132;2023-03-01T04:53:40;43.03;;;16.10;;
20928;SDS011;21895;47.072;15.132;2023-03-01T04:56:07;43.93;;;16.40;;
20928;SDS011;21895;47.072;15.132;2023-03-01T04:58:34;37.03;;;15.43;;
20928;SDS011;21895;47.072;15.132;2023-03-01T05:01:01;41.43;;;15.40;;
20928;SDS011;21895;47.072;15.132;2023-03-01T05:03:41;35.53;;;14.97;;
20928;SDS011;21895;47.072;15.132;2023-03-01T05:06:13;43.87;;;15.07;;
20928;SDS011;21895;47.072;15.132;2023-03-01T05:08:41;36.43;;;15.13;;
20928;SDS011;21895;47.072;15.132;2023-03-01T05:11:09;42.23;;;16.03;;
20928;SDS011;21895;47.072;15.132;2023-03-01T05:13:37;42.17;;;17.07;;
20928;SDS011;21895;47.072;15.132;2023-03-01T05:16:05;40.70;;;15.97;;
20928;SDS011;21895;47.072;15.132;2023-03-01T05:18:36;40.27;;;15.90;;
20928;SDS011;21895;47.072;15.132;2023-03-01T05:21:05;39.50;;;16.33;;
20928;SDS011;21895;47.072;15.132;2023-03-01T05:23:38;45.20;;;16.13;;
20928;SDS011;21895;47.072;15.132;2023-03-01T05:26:06;39.13;;;15.63;;
20928;SDS011;21895;47.072;15.132;2023-03-01T05:28:47;46.57;;;16.47;;
20928;SDS011;21895;47.072;15.132;2023-03-01T05:31:14;42.80;;;15.03;;
20928;SDS011;21895;47.072;15.132;2023-03-01T05:33:41;38.50;;;15.73;;
20928;SDS011;21895;47.072;15.132;2023-03-01T05:36:09;44.03;;;16.83;;
20928;SDS011;21895;47.072;15.132;2023-03-01T05:38:36;42.73;;;17.20;;
20928;SDS011;21895;47.072;15.132;2023-03-01T05:41:02;42.13;;;18.13;;
20928;SDS011;21895;47.072;15.132;2023-03-01T05:43:32;51.37;;;20.10;;
20928;SDS011;21895;47.072;15.132;2023-03-01T05:45:59;43.37;;;16.63;;
20928;SDS011;21895;47.072;15.132;2023-03-01T05:48:26;51.40;;;16.17;;
20928;SDS011;21895;47.072;15.132;2023-03-01T05:50:52;57.70;;;15.50;;
20928;SDS011;21895;47.072;15.132;2023-03-01T05:53:19;39.50;;;15.53;;
20928;SDS011;21895;47.072;15.132;2023-03-01T05:55:46;38.13;;;16.60;;
20928;SDS011;21895;47.072;15.132;2023-03-01T05:58:16;37.97;;;15.57;;
20928;SDS011;21895;47.072;15.132;2023-03-01T06:00:45;41.20;;;15.40;;
20928;SDS011;21895;47.072;15.132;2023-03-01T06:03:14;46.70;;;15.67;;
20928;SDS011;21895;47.072;15.132;2023-03-01T06:05:43;38.27;;;15.57;;
20928;SDS011;21895;47.072;15.132;2023-03-01T06:08:10;42.80;;;15.63;;
20928;SDS011;21895;47.072;15.132;2023-03-01T06:10:38;39.93;;;16.13;;
20928;SDS011;21895;47.072;15.132;2023-03-01T06:13:06;38.20;;;16.43;;
20928;SDS011;21895;47.072;15.132;2023-03-01T06:15:32;39.60;;;15.97;;
20928;SDS011;21895;47.072;15.132;2023-03-01T06:17:59;38.60;;;15.40;;
20928;SDS011;21895;47.072;15.132;2023-03-01T06:20:28;38.23;;;16.07;;
20928;SDS011;21895;47.072;15.132;2023-03-01T06:22:55;38.13;;;15.30;;
20928;SDS011;21895;47.072;15.132;2023-03-01T06:25:22;41.10;;;16.27;;
20928;SDS011;21895;47.072;15.132;2023-03-01T06:27:51;43.43;;;15.93;;
20928;SDS011;21895;47.072;15.132;2023-03-01T06:30:18;43.60;;;15.77;;
20928;SDS011;21895;47.072;15.132;2023-03-01T06:32:47;44.33;;;16.40;;
20928;SDS011;21895;47.072;15.132;2023-03-01T06:35:14;42.13;;;17.63;;
20928;SDS011;21895;47.072;15.132;2023-03-01T06:37:43;46.27;;;17.23;;
20928;SDS011;21895;47.072;15.132;2023-03-01T06:40:12;42.03;;;16.70;;
20928;SDS011;21895;47.072;15.132;2023-03-01T06:42:40;43.73;;;16.70;;
20928;SDS011;21895;47.072;15.132;2023-03-01T06:45:14;52.53;;;17.87;;
20928;SDS011;21895;47.072;15.132;2023-03-01T06:47:41;70.37;;;18.87;;
20928;SDS011;21895;47.072;15.132;2023-03-01T06:50:08;47.80;;;17.37;;
20928;SDS011;21895;47.072;15.132;2023-03-01T06:52:36;44.10;;;17.07;;
20928;SDS011;21895;47.072;15.132;2023-03-01T06:55:03;39.00;;;15.97;;
20928;SDS011;21895;47.072;15.132;2023-03-01T06:57:30;50.57;;;19.33;;
20928;SDS011;21895;47.072;15.132;2023-03-01T06:59:57;43.87;;;17.37;;
20928;SDS011;21895;47.072;15.132;2023-03-01T07:02:23;42.53;;;16.63;;
20928;SDS011;21895;47.072;15.132;2023-03-01T07:04:50;41.50;;;16.97;;
20928;SDS011;21895;47.072;15.132;2023-03-01T07:07:17;42.20;;;17.77;;
20928;SDS011;21895;47.072;15.132;2023-03-01T07:09:44;47.03;;;16.63;;
20928;SDS011;21895;47.072;15.132;2023-03-01T07:12:12;45.30;;;17.20;;
20928;SDS011;21895;47.072;15.132;2023-03-01T07:14:38;47.77;;;17.33;;
20928;SDS011;21895;47.072;15.132;2023-03-01T07:17:05;42.53;;;16.97;;
20928;SDS011;21895;47.072;15.132;2023-03-01T07:19:31;42.77;;;17.83;;
20928;SDS011;21895;47.072;15.132;2023-03-01T07:21:58;46.43;;;17.33;;
20928;SDS011;21895;47.072;15.132;2023-03-01T07:24:25;45.07;;;17.70;;
20928;SDS011;21895;47.072;15.132;2023-03-01T07:26:51;52.07;;;18.17;;
20928;SDS011;21895;47.072;15.132;2023-03-01T07:29:18;44.57;;;16.70;;
20928;SDS011;21895;47.072;15.132;2023-03-01T07:31:45;45.43;;;17.67;;
20928;SDS011;21895;47.072;15.132;2023-03-01T07:34:11;43.60;;;18.00;;
20928;SDS011;21895;47.072;15.132;2023-03-01T07:36:38;49.67;;;20.90;;
20928;SDS011;21895;47.072;15.132;2023-03-01T07:39:07;63.57;;;22.07;;
20928;SDS011;21895;47.072;15.132;2023-03-01T07:41:36;59.27;;;22.40;;
20928;SDS011;21895;47.072;15.132;2023-03-01T07:44:02;63.83;;;22.87;;
20928;SDS011;21895;47.072;15.132;2023-03-01T07:46:29;53.50;;;20.70;;
20928;SDS011;21895;47.072;15.132;2023-03-01T07:48:57;73.70;;;22.63;;
20928;SDS011;21895;47.072;15.132;2023-03-01T07:51:23;60.43;;;21.47;;
20928;SDS011;21895;47.072;15.132;2023-03-01T07:53:50;48.57;;;20.03;;
20928;SDS011;21895;47.072;15.132;2023-03-01T07:56:16;56.87;;;21.53;;
20928;SDS011;21895;47.072;15.132;2023-03-01T07:58:44;64.50;;;21.60;;
20928;SDS011;21895;47.072;15.132;2023-03-01T08:01:12;62.43;;;23.40;;
20928;SDS011;21895;47.072;15.132;2023-03-01T08:03:43;65.23;;;23.80;;
20928;SDS011;21895;47.072;15.132;2023-03-01T08:06:10;62.37;;;22.47;;
20928;SDS011;21895;47.072;15.132;2023-03-01T08:08:39;52.47;;;21.23;;
20928;SDS011;21895;47.072;15.132;2023-03-01T08:11:07;60.93;;;21.53;;
20928;SDS011;21895;47.072;15.132;2023-03-01T08:13:37;55.67;;;22.87;;
20928;SDS011;21895;47.072;15.132;2023-03-01T08:16:07;60.97;;;20.47;;
20928;SDS011;21895;47.072;15.132;2023-03-01T08:18:37;52.67;;;20.57;;
20928;SDS011;21895;47.072;15.132;2023-03-01T08:21:09;48.90;;;19.33;;
20928;SDS011;21895;47.072;15.132;2023-03-01T08:23:41;50.90;;;19.07;;
20928;SDS011;21895;47.072;15.132;2023-03-01T08:26:16;52.47;;;19.17;;
20928;SDS011;21895;47.072;15.132;2023-03-01T08:28:46;48.90;;;19.10;;
20928;SDS011;21895;47.072;15.132;2023-03-01T08:31:25;42.63;;;18.07;;
20928;SDS011;21895;47.072;15.132;2023-03-01T08:33:56;37.53;;;14.73;;
20928;SDS011;21895;47.072;15.132;2023-03-01T08:36:30;44.10;;;16.10;;
20928;SDS011;21895;47.072;15.132;2023-03-01T08:39:00;33.07;;;12.97;;
20928;SDS011;21895;47.072;15.132;2023-03-01T08:41:27;30.47;;;12.13;;
20928;SDS011;21895;47.072;15.132;2023-03-01T08:43:54;27.83;;;11.43;;
20928;SDS011;21895;47.072;15.132;2023-03-01T08:46:25;34.77;;;11.63;;
20928;SDS011;21895;47.072;15.132;2023-03-01T08:48:53;29.33;;;12.10;;
20928;SDS011;21895;47.072;15.132;2023-03-01T08:51:20;29.47;;;12.83;;
20928;SDS011;21895;47.072;15.132;2023-03-01T08:53:48;36.67;;;12.67;;
20928;SDS011;21895;47.072;15.132;2023-03-01T08:56:15;34.20;;;12.57;;
20928;SDS011;21895;47.072;15.132;2023-03-01T08:58:44;30.80;;;12.27;;
20928;SDS011;21895;47.072;15.132;2023-03-01T09:01:14;30.43;;;12.40;;
20928;SDS011;21895;47.072;15.132;2023-03-01T09:03:43;28.87;;;12.40;;
20928;SDS011;21895;47.072;15.132;2023-03-01T09:06:11;30.43;;;12.57;;
20928;SDS011;21895;47.072;15.132;2023-03-01T09:08:40;33.83;;;12.97;;
20928;SDS011;21895;47.072;15.132;2023-03-01T09:11:11;31.13;;;12.83;;
20928;SDS011;21895;47.072;15.132;2023-03-01T09:13:42;32.17;;;12.63;;
20928;SDS011;21895;47.072;15.132;2023-03-01T09:16:10;34.57;;;12.87;;
20928;SDS011;21895;47.072;15.132;2023-03-01T09:18:39;28.60;;;12.27;;
20928;SDS011;21895;47.072;15.132;2023-03-01T09:21:13;37.33;;;12.80;;
20928;SDS011;21895;47.072;15.132;2023-03-01T09:23:42;38.67;;;13.10;;
20928;SDS011;21895;47.072;15.132;2023-03-01T09:26:13;30.90;;;12.83;;
20928;SDS011;21895;47.072;15.132;2023-03-01T09:28:48;30.17;;;12.77;;
20928;SDS011;21895;47.072;15.132;2023-03-01T09:31:16;30.93;;;12.50;;
20928;SDS011;21895;47.072;15.132;2023-03-01T09:33:45;28.30;;;12.50;;
20928;SDS011;21895;47.072;15.132;2023-03-01T09:36:16;33.33;;;13.47;;
20928;SDS011;21895;47.072;15.132;2023-03-01T09:38:46;32.43;;;13.13;;
20928;SDS011;21895;47.072;15.132;2023-03-01T09:41:58;28.50;;;12.73;;
20928;SDS011;21895;47.072;15.132;2023-03-01T09:44:38;26.77;;;11.67;;
20928;SDS011;21895;47.072;15.132;2023-03-01T09:48:00;28.07;;;11.60;;
20928;SDS011;21895;47.072;15.132;2023-03-01T09:50:36;28.87;;;12.10;;
20928;SDS011;21895;47.072;15.132;2023-03-01T09:53:10;29.17;;;12.03;;
20928;SDS011;21895;47.072;15.132;2023-03-01T10:02:49;31.00;;;12.07;;
20928;SDS011;21895;47.072;15.132;2023-03-01T10:09:02;25.53;;;11.87;;
20928;SDS011;21895;47.072;15.132;2023-03-01T10:11:38;30.67;;;12.87;;
20928;SDS011;21895;47.072;15.132;2023-03-01T10:17:16;39.83;;;13.73;;
20928;SDS011;21895;47.072;15.132;2023-03-01T10:20:10;33.30;;;13.17;;
20928;SDS011;21895;47.072;15.132;2023-03-01T10:22:51;37.50;;;14.23;;
20928;SDS011;21895;47.072;15.132;2023-03-01T10:25:23;38.90;;;14.77;;
20928;SDS011;21895;47.072;15.132;2023-03-01T10:29:43;32.83;;;13.97;;
20928;SDS011;21895;47.072;15.132;2023-03-01T10:32:42;29.90;;;13.47;;
20928;SDS011;21895;47.072;15.132;2023-03-01T10:35:43;36.50;;;14.87;;
20928;SDS011;21895;47.072;15.132;2023-03-01T10:38:10;30.37;;;12.63;;
20928;SDS011;21895;47.072;15.132;2023-03-01T10:40:52;31.90;;;13.20;;
20928;SDS011;21895;47.072;15.132;2023-03-01T10:43:23;48.23;;;14.07;;
20928;SDS011;21895;47.072;15.132;2023-03-01T10:46:32;33.27;;;13.80;;
20928;SDS011;21895;47.072;15.132;2023-03-01T10:49:12;41.73;;;13.50;;
20928;SDS011;21895;47.072;15.132;2023-03-01T10:51:45;41.50;;;14.00;;
20928;SDS011;21895;47.072;15.132;2023-03-01T10:54:35;31.00;;;13.57;;
20928;SDS011;21895;47.072;15.132;2023-03-01T10:57:04;43.10;;;14.40;;
20928;SDS011;21895;47.072;15.132;2023-03-01T10:59:32;38.80;;;14.40;;
20928;SDS011;21895;47.072;15.132;2023-03-01T11:06:47;35.07;;;13.83;;
20928;SDS011;21895;47.072;15.132;2023-03-01T11:09:26;32.63;;;12.13;;
20928;SDS011;21895;47.072;15.132;2023-03-01T11:12:05;36.77;;;13.93;;
20928;SDS011;21895;47.072;15.132;2023-03-01T11:14:48;32.60;;;13.87;;
20928;SDS011;21895;47.072;15.132;2023-03-01T11:17:21;31.97;;;13.00;;
20928;SDS011;21895;47.072;15.132;2023-03-01T11:20:03;30.93;;;13.60;;
20928;SDS011;21895;47.072;15.132;2023-03-01T11:22:54;33.13;;;13.57;;
20928;SDS011;21895;47.072;15.132;2023-03-01T11:25:42;31.17;;;12.93;;
20928;SDS011;21895;47.072;15.132;2023-03-01T11:28:17;40.10;;;14.13;;
20928;SDS011;21895;47.072;15.132;2023-03-01T11:33:54;32.77;;;14.03;;
20928;SDS011;21895;47.072;15.132;2023-03-01T11:38:09;34.93;;;13.83;;
20928;SDS011;21895;47.072;15.132;2023-03-01T11:40:57;31.90;;;14.17;;
20928;SDS011;21895;47.072;15.132;2023-03-01T11:44:11;37.80;;;14.63;;
20928;SDS011;21895;47.072;15.132;2023-03-01T11:46:52;34.07;;;12.57;;
20928;SDS011;21895;47.072;15.132;2023-03-01T12:12:51;38.13;;;13.03;;
20928;SDS011;21895;47.072;15.132;2023-03-01T12:20:35;50.53;;;13.13;;
20928;SDS011;21895;47.072;15.132;2023-03-01T12:27:24;32.50;;;13.67;;
20928;SDS011;21895;47.072;15.132;2023-03-01T12:33:19;43.17;;;13.53;;
20928;SDS011;21895;47.072;15.132;2023-03-01T12:37:47;33.30;;;14.53;;
20928;SDS011;21895;47.072;15.132;2023-03-01T12:42:26;33.10;;;12.80;;
20928;SDS011;21895;47.072;15.132;2023-03-01T12:47:11;29.63;;;12.67;;
20928;SDS011;21895;47.072;15.132;2023-03-01T12:50:04;31.60;;;12.30;;
20928;SDS011;21895;47.072;15.132;2023-03-01T12:52:46;36.67;;;13.33;;
20928;SDS011;21895;47.072;15.132;2023-03-01T12:59:32;37.97;;;13.47;;
20928;SDS011;21895;47.072;15.132;2023-03-01T13:02:25;34.63;;;14.47;;
20928;SDS011;21895;47.072;15.132;2023-03-01T13:05:16;31.10;;;14.20;;
20928;SDS011;21895;47.072;15.132;2023-03-01T13:08:29;35.23;;;13.97;;
20928;SDS011;21895;47.072;15.132;2023-03-01T13:11:22;37.13;;;14.00;;
20928;SDS011;21895;47.072;15.132;2023-03-01T13:13:49;39.17;;;14.77;;
20928;SDS011;21895;47.072;15.132;2023-03-01T13:21:08;47.27;;;13.27;;
20928;SDS011;21895;47.072;15.132;2023-03-01T13:23:35;32.83;;;13.53;;
20928;SDS011;21895;47.072;15.132;2023-03-01T13:26:08;32.60;;;13.50;;
20928;SDS011;21895;47.072;15.132;2023-03-01T13:28:49;34.27;;;13.77;;
20928;SDS011;21895;47.072;15.132;2023-03-01T13:31:55;34.20;;;14.23;;
20928;SDS011;21895;47.072;15.132;2023-03-01T13:34:39;42.97;;;13.77;;
20928;SDS011;21895;47.072;15.132;2023-03-01T13:37:10;35.63;;;14.43;;
20928;SDS011;21895;47.072;15.132;2023-03-01T13:39:56;30.33;;;13.50;;
20928;SDS011;21895;47.072;15.132;2023-03-01T13:42:40;39.13;;;14.17;;
20928;SDS011;21895;47.072;15.132;2023-03-01T13:45:19;32.03;;;13.80;;
20928;SDS011;21895;47.072;15.132;2023-03-01T13:48:21;32.80;;;12.53;;
20928;SDS011;21895;47.072;15.132;2023-03-01T13:50:59;31.30;;;14.16;;
20928;SDS011;21895;47.072;15.132;2023-03-01T13:53:31;31.97;;;13.33;;
20928;SDS011;21895;47.072;15.132;2023-03-01T13:56:09;40.30;;;13.57;;
20928;SDS011;21895;47.072;15.132;2023-03-01T13:58:58;27.17;;;13.47;;
20928;SDS011;21895;47.072;15.132;2023-03-01T14:01:38;26.57;;;12.20;;
20928;SDS011;21895;47.072;15.132;2023-03-01T14:04:28;30.53;;;11.60;;
20928;SDS011;21895;47.072;15.132;2023-03-01T14:07:13;28.50;;;11.17;;
20928;SDS011;21895;47.072;15.132;2023-03-01T14:10:00;30.57;;;11.47;;
20928;SDS011;21895;47.072;15.132;2023-03-01T14:13:33;30.70;;;12.87;;
20928;SDS011;21895;47.072;15.132;2023-03-01T14:17:24;30.57;;;11.60;;
20928;SDS011;21895;47.072;15.132;2023-03-01T14:21:31;31.63;;;11.87;;
20928;SDS011;21895;47.072;15.132;2023-03-01T14:23:57;31.30;;;12.40;;
20928;SDS011;21895;47.072;15.132;2023-03-01T14:26:24;33.00;;;11.87;;
20928;SDS011;21895;47.072;15.132;2023-03-01T14:28:51;29.30;;;12.60;;
20928;SDS011;21895;47.072;15.132;2023-03-01T14:31:31;28.33;;;11.80;;
20928;SDS011;21895;47.072;15.132;2023-03-01T14:34:19;29.53;;;12.40;;
20928;SDS011;21895;47.072;15.132;2023-03-01T14:36:48;27.93;;;11.83;;
20928;SDS011;21895;47.072;15.132;2023-03-01T14:39:19;29.40;;;11.90;;
20928;SDS011;21895;47.072;15.132;2023-03-01T14:41:51;29.00;;;11.13;;
20928;SDS011;21895;47.072;15.132;2023-03-01T14:44:19;32.57;;;11.53;;
20928;SDS011;21895;47.072;15.132;2023-03-01T14:46:56;31.53;;;10.90;;
20928;SDS011;21895;47.072;15.132;2023-03-01T14:49:24;25.37;;;11.07;;
20928;SDS011;21895;47.072;15.132;2023-03-01T14:52:03;25.63;;;10.63;;
20928;SDS011;21895;47.072;15.132;2023-03-01T14:54:40;35.73;;;12.10;;
20928;SDS011;21895;47.072;15.132;2023-03-01T14:57:13;27.23;;;11.83;;
20928;SDS011;21895;47.072;15.132;2023-03-01T14:59:45;28.90;;;11.13;;
20928;SDS011;21895;47.072;15.132;2023-03-01T15:02:13;35.80;;;10.70;;
20928;SDS011;21895;47.072;15.132;2023-03-01T15:04:45;24.97;;;11.17;;
20928;SDS011;21895;47.072;15.132;2023-03-01T15:07:18;25.30;;;10.07;;
20928;SDS011;21895;47.072;15.132;2023-03-01T15:09:45;23.33;;;9.27;;
20928;SDS011;21895;47.072;15.132;2023-03-01T15:12:31;22.33;;;9.37;;
20928;SDS011;21895;47.072;15.132;2023-03-01T15:15:18;34.90;;;7.33;;
20928;SDS011;21895;47.072;15.132;2023-03-01T15:18:05;22.30;;;7.97;;
20928;SDS011;21895;47.072;15.132;2023-03-01T15:20:45;23.27;;;8.37;;
20928;SDS011;21895;47.072;15.132;2023-03-01T15:23:21;20.13;;;8.37;;
20928;SDS011;21895;47.072;15.132;2023-03-01T15:25:54;30.30;;;9.47;;
20928;SDS011;21895;47.072;15.132;2023-03-01T15:28:23;21.90;;;9.27;;
20928;SDS011;21895;47.072;15.132;2023-03-01T15:31:04;20.97;;;8.70;;
20928;SDS011;21895;47.072;15.132;2023-03-01T15:33:50;19.53;;;8.60;;
20928;SDS011;21895;47.072;15.132;2023-03-01T15:36:51;19.73;;;8.83;;
20928;SDS011;21895;47.072;15.132;2023-03-01T15:39:33;27.67;;;9.10;;
20928;SDS011;21895;47.072;15.132;2023-03-01T15:52:23;23.57;;;8.17;;
20928;SDS011;21895;47.072;15.132;2023-03-01T15:54:56;21.10;;;9.13;;
20928;SDS011;21895;47.072;15.132;2023-03-01T15:57:27;26.03;;;9.33;;
20928;SDS011;21895;47.072;15.132;2023-03-01T15:59:55;21.10;;;9.60;;
20928;SDS011;21895;47.072;15.132;2023-03-01T16:02:22;29.70;;;10.13;;
20928;SDS011;21895;47.072;15.132;2023-03-01T16:04:50;25.03;;;9.23;;
20928;SDS011;21895;47.072;15.132;2023-03-01T16:07:17;25.17;;;9.93;;
20928;SDS011;21895;47.072;15.132;2023-03-01T16:09:43;24.53;;;9.73;;
20928;SDS011;21895;47.072;15.132;2023-03-01T16:12:12;26.53;;;9.40;;
20928;SDS011;21895;47.072;15.132;2023-03-01T16:14:42;27.63;;;9.90;;
20928;SDS011;21895;47.072;15.132;2023-03-01T16:17:08;33.37;;;11.87;;
20928;SDS011;21895;47.072;15.132;2023-03-01T16:19:36;25.37;;;8.57;;